Detall de PIREP

Printer-friendly versionPDF version

[2010/11/20 21:27:00]
Flight IATA:CT1001
Pilot Number:026
Company ICAO:CAT
Aircraft Type:DC85/A
PAX:136
Departing Airport: LEGE
Destination Airport: LFMN
Alternate Airport:LFML
Online: VATSIM
Route:BGR UH110 DIBER UN870 SOSUR/N0452F180 B16 MTG/N0425F170 G701 MJ/N0409F160 G701 LUC
Flight Level:FL260
No Slew and time accel
No pause
Crash detect
Detect pilot in Cockpit between each 30 and 45 minutes
21:27 Zero fuel Weight: 177605 Lbs, Fuel Weight: 24001 Lbs
21:27 VATSIM:LEGE 202100Z 00000KT CAVOK 06/04 Q1004
21:27 VATSIM:LFMN 202100Z 07018KT 8000 RA FEW004 FEW030TCU BKN046 13/09 Q1009 TEMPO FM 2130 6000 SHRA FEW020CB BKN030
21:28 VOICE CATALONIAN / LFMN FLY-IN
21:35 Parking Brakes off
21:42 Take-off
21:42 Take off Weight: 200629 Lbs
21:42 Wind: 242º @ 002 Knots Heading: 015º
21:42 POS N41º 54´ 38´´ E002º 45´ 50´´
21:42 Gear Up: 170 Knots
21:42 Flaps:2 at 170 Knots
21:43 Flaps:1 at 214 Knots
21:44 Flaps:0 at 242 Knots
21:51 TOC
21:51 Fuel Weight: 19837 Lb
21:57 Wind:035º@017 Knots Heading: 040º Ground Speed: 428 Knots Altitude 25738 ft
21:59 TOD
21:59 Fuel Weight: 18070 Lb
22:12 Wind:075º@021 Knots Heading: 071º Ground Speed: 299 Knots Altitude 13346 ft
22:21 Flaps:5 at 210 Knots
22:21 Flaps:0 at 209 Knots
22:27 Wind:038º@011 Knots Heading: 059º Ground Speed: 214 Knots Altitude 4038 ft
22:30 Gear Down: 229 Knots
22:30 Flaps:1 at 228 Knots
22:30 Flaps:2 at 186 Knots
22:30 Flaps:3 at 174 Knots
22:31 Flaps:4 at 165 Knots
22:32 Flaps:5 at 156 Knots
22:32 TouchDown:Rate -133 ft/min Speed: 148 Knots
22:32 VATSIM:LFMN 202200Z 01010KT 6000 RA FEW007 FEW027TCU SCT029 BKN033 11/08 Q1009 TEMPO FM 2230 3000 SHRA FEW020CB BKN030
22:33 Land
22:33 Wind:013º@010 Knots
22:33 Heading: 040º
22:33 Flight Duration: 00:51
22:33 Landing Weight: 192338 Lbs
22:33 POS N43º 39´ 41´´ E007º 13´ 02´´
22:40 Parking brakes on
22:40 Block to Block Duration: 01:05
22:40 Final Fuel: 14098 Lbls
22:40 Spent Fuel: 9903 Lbls
22:40 Flight Length: 252 NM
22:40 TOD Land Length: 147 NM

Exportar CSV

Powered by Drupal - Modified by Danger4k